sensor_id;sensor_type;location;lat;lon;timestamp;temperature;humidity
39315;DHT22;28703;44.412;11.918;2023-06-24T00:00:15;27.10;89.20
39315;DHT22;28703;44.412;11.918;2023-06-24T00:02:44;27.00;89.30
39315;DHT22;28703;44.412;11.918;2023-06-24T00:05:11;27.00;89.40
39315;DHT22;28703;44.412;11.918;2023-06-24T00:07:37;27.00;89.50
39315;DHT22;28703;44.412;11.918;2023-06-24T00:10:13;27.00;89.70
39315;DHT22;28703;44.412;11.918;2023-06-24T00:12:39;26.90;89.70
39315;DHT22;28703;44.412;11.918;2023-06-24T00:15:07;26.80;89.80
39315;DHT22;28703;44.412;11.918;2023-06-24T00:17:37;26.80;90.00
39315;DHT22;28703;44.412;11.918;2023-06-24T00:20:03;26.70;90.00
39315;DHT22;28703;44.412;11.918;2023-06-24T00:22:31;26.70;90.10
39315;DHT22;28703;44.412;11.918;2023-06-24T00:24:57;26.70;90.10
39315;DHT22;28703;44.412;11.918;2023-06-24T00:27:23;26.60;90.10
39315;DHT22;28703;44.412;11.918;2023-06-24T00:29:48;26.60;90.10
39315;DHT22;28703;44.412;11.918;2023-06-24T00:32:15;26.50;90.20
39315;DHT22;28703;44.412;11.918;2023-06-24T00:34:41;26.50;90.20
39315;DHT22;28703;44.412;11.918;2023-06-24T00:37:09;26.50;90.30
39315;DHT22;28703;44.412;11.918;2023-06-24T00:39:35;26.40;90.30
39315;DHT22;28703;44.412;11.918;2023-06-24T00:42:01;26.40;90.30
39315;DHT22;28703;44.412;11.918;2023-06-24T00:44:27;26.40;90.40
39315;DHT22;28703;44.412;11.918;2023-06-24T00:46:54;26.30;90.40
39315;DHT22;28703;44.412;11.918;2023-06-24T00:49:20;26.30;90.50
39315;DHT22;28703;44.412;11.918;2023-06-24T00:51:46;26.30;90.50
39315;DHT22;28703;44.412;11.918;2023-06-24T00:54:17;26.20;90.60
39315;DHT22;28703;44.412;11.918;2023-06-24T00:56:43;26.10;90.60
39315;DHT22;28703;44.412;11.918;2023-06-24T00:59:12;26.10;90.70
39315;DHT22;28703;44.412;11.918;2023-06-24T01:01:38;26.00;90.70
39315;DHT22;28703;44.412;11.918;2023-06-24T01:04:07;26.00;90.80
39315;DHT22;28703;44.412;11.918;2023-06-24T01:06:35;26.00;90.80
39315;DHT22;28703;44.412;11.918;2023-06-24T01:09:02;25.90;90.80
39315;DHT22;28703;44.412;11.918;2023-06-24T01:11:30;25.90;90.80
39315;DHT22;28703;44.412;11.918;2023-06-24T01:13:56;25.90;90.80
39315;DHT22;28703;44.412;11.918;2023-06-24T01:16:53;25.90;90.80
39315;DHT22;28703;44.412;11.918;2023-06-24T01:19:51;25.90;91.00
39315;DHT22;28703;44.412;11.918;2023-06-24T01:30:32;25.70;91.10
39315;DHT22;28703;44.412;11.918;2023-06-24T01:33:03;25.60;91.00
39315;DHT22;28703;44.412;11.918;2023-06-24T01:35:32;25.60;91.10
39315;DHT22;28703;44.412;11.918;2023-06-24T01:38:15;25.60;91.10
39315;DHT22;28703;44.412;11.918;2023-06-24T01:40:46;25.50;91.20
39315;DHT22;28703;44.412;11.918;2023-06-24T01:43:13;25.50;91.20
39315;DHT22;28703;44.412;11.918;2023-06-24T01:45:42;25.50;91.10
39315;DHT22;28703;44.412;11.918;2023-06-24T01:48:19;25.40;91.10
39315;DHT22;28703;44.412;11.918;2023-06-24T01:51:12;25.50;91.10
39315;DHT22;28703;44.412;11.918;2023-06-24T01:53:44;25.40;91.10
39315;DHT22;28703;44.412;11.918;2023-06-24T01:56:15;25.40;91.10
39315;DHT22;28703;44.412;11.918;2023-06-24T01:58:42;25.40;91.00
39315;DHT22;28703;44.412;11.918;2023-06-24T02:01:09;25.30;91.10
39315;DHT22;28703;44.412;11.918;2023-06-24T02:03:35;25.30;91.40
39315;DHT22;28703;44.412;11.918;2023-06-24T02:06:04;25.30;91.10
39315;DHT22;28703;44.412;11.918;2023-06-24T02:08:33;25.30;91.10
39315;DHT22;28703;44.412;11.918;2023-06-24T02:11:01;25.30;91.10
39315;DHT22;28703;44.412;11.918;2023-06-24T02:13:32;25.30;91.10
39315;DHT22;28703;44.412;11.918;2023-06-24T02:16:02;25.30;91.10
39315;DHT22;28703;44.412;11.918;2023-06-24T02:18:29;25.30;91.10
39315;DHT22;28703;44.412;11.918;2023-06-24T02:20:56;25.30;91.10
39315;DHT22;28703;44.412;11.918;2023-06-24T02:23:23;25.30;91.10
39315;DHT22;28703;44.412;11.918;2023-06-24T02:25:49;25.30;91.10
39315;DHT22;28703;44.412;11.918;2023-06-24T02:28:17;25.30;91.10
39315;DHT22;28703;44.412;11.918;2023-06-24T02:30:44;25.30;91.20
39315;DHT22;28703;44.412;11.918;2023-06-24T02:33:10;25.30;91.20
39315;DHT22;28703;44.412;11.918;2023-06-24T02:35:38;25.30;91.20
39315;DHT22;28703;44.412;11.918;2023-06-24T02:38:04;25.20;91.20
39315;DHT22;28703;44.412;11.918;2023-06-24T02:40:30;25.20;91.20
39315;DHT22;28703;44.412;11.918;2023-06-24T02:42:58;25.20;91.20
39315;DHT22;28703;44.412;11.918;2023-06-24T02:45:24;25.20;91.20
39315;DHT22;28703;44.412;11.918;2023-06-24T02:47:51;25.20;91.20
39315;DHT22;28703;44.412;11.918;2023-06-24T02:50:18;25.20;91.30
39315;DHT22;28703;44.412;11.918;2023-06-24T02:52:45;25.20;91.20
39315;DHT22;28703;44.412;11.918;2023-06-24T02:55:14;25.20;91.30
39315;DHT22;28703;44.412;11.918;2023-06-24T02:57:41;25.20;91.30
39315;DHT22;28703;44.412;11.918;2023-06-24T03:00:28;25.20;91.30
39315;DHT22;28703;44.412;11.918;2023-06-24T03:03:08;25.10;91.30
39315;DHT22;28703;44.412;11.918;2023-06-24T03:05:37;25.10;91.30
39315;DHT22;28703;44.412;11.918;2023-06-24T03:08:04;25.10;91.40
39315;DHT22;28703;44.412;11.918;2023-06-24T03:10:32;25.10;91.40
39315;DHT22;28703;44.412;11.918;2023-06-24T03:12:58;25.10;91.40
39315;DHT22;28703;44.412;11.918;2023-06-24T03:15:32;25.10;91.50
39315;DHT22;28703;44.412;11.918;2023-06-24T03:18:01;25.10;91.50
39315;DHT22;28703;44.412;11.918;2023-06-24T03:20:27;25.10;91.50
39315;DHT22;28703;44.412;11.918;2023-06-24T03:22:55;25.10;91.50
39315;DHT22;28703;44.412;11.918;2023-06-24T03:25:22;25.10;91.50
39315;DHT22;28703;44.412;11.918;2023-06-24T03:27:48;25.00;91.50
39315;DHT22;28703;44.412;11.918;2023-06-24T03:30:15;25.00;91.50
39315;DHT22;28703;44.412;11.918;2023-06-24T03:32:42;25.00;91.50
39315;DHT22;28703;44.412;11.918;2023-06-24T03:35:13;25.00;91.50
39315;DHT22;28703;44.412;11.918;2023-06-24T03:37:40;24.90;91.50
39315;DHT22;28703;44.412;11.918;2023-06-24T03:40:06;24.90;91.60
39315;DHT22;28703;44.412;11.918;2023-06-24T03:42:32;24.90;91.60
39315;DHT22;28703;44.412;11.918;2023-06-24T03:44:58;24.90;91.70
39315;DHT22;28703;44.412;11.918;2023-06-24T03:47:24;24.90;91.70
39315;DHT22;28703;44.412;11.918;2023-06-24T03:49:50;24.90;91.70
39315;DHT22;28703;44.412;11.918;2023-06-24T03:52:18;24.90;91.80
39315;DHT22;28703;44.412;11.918;2023-06-24T03:54:44;24.90;91.80
39315;DHT22;28703;44.412;11.918;2023-06-24T03:57:09;24.90;91.90
39315;DHT22;28703;44.412;11.918;2023-06-24T03:59:35;24.90;92.00
39315;DHT22;28703;44.412;11.918;2023-06-24T04:02:01;24.90;91.90
39315;DHT22;28703;44.412;11.918;2023-06-24T04:04:27;24.90;91.90
39315;DHT22;28703;44.412;11.918;2023-06-24T04:06:55;24.90;91.80
39315;DHT22;28703;44.412;11.918;2023-06-24T04:09:21;24.90;91.80
39315;DHT22;28703;44.412;11.918;2023-06-24T04:11:48;24.90;91.80
39315;DHT22;28703;44.412;11.918;2023-06-24T04:14:13;24.80;91.80
39315;DHT22;28703;44.412;11.918;2023-06-24T04:16:39;24.80;91.80
39315;DHT22;28703;44.412;11.918;2023-06-24T04:19:05;24.80;91.80
39315;DHT22;28703;44.412;11.918;2023-06-24T04:21:31;24.80;91.80
39315;DHT22;28703;44.412;11.918;2023-06-24T04:23:57;24.80;91.80
39315;DHT22;28703;44.412;11.918;2023-06-24T04:26:23;24.80;91.80
39315;DHT22;28703;44.412;11.918;2023-06-24T04:28:50;24.70;91.80
39315;DHT22;28703;44.412;11.918;2023-06-24T04:31:16;24.80;92.00
39315;DHT22;28703;44.412;11.918;2023-06-24T04:33:42;24.80;92.20
39315;DHT22;28703;44.412;11.918;2023-06-24T04:36:08;24.80;92.30
39315;DHT22;28703;44.412;11.918;2023-06-24T04:38:36;24.80;92.40
39315;DHT22;28703;44.412;11.918;2023-06-24T04:41:02;24.70;92.50
39315;DHT22;28703;44.412;11.918;2023-06-24T04:43:29;24.70;92.50
39315;DHT22;28703;44.412;11.918;2023-06-24T04:45:55;24.70;92.60
39315;DHT22;28703;44.412;11.918;2023-06-24T04:48:26;24.70;92.70
39315;DHT22;28703;44.412;11.918;2023-06-24T04:50:52;24.70;92.70
39315;DHT22;28703;44.412;11.918;2023-06-24T04:53:19;24.70;92.90
39315;DHT22;28703;44.412;11.918;2023-06-24T04:55:44;24.70;92.90
39315;DHT22;28703;44.412;11.918;2023-06-24T04:58:10;24.70;92.70
39315;DHT22;28703;44.412;11.918;2023-06-24T05:00:36;24.70;92.60
39315;DHT22;28703;44.412;11.918;2023-06-24T05:03:02;24.60;92.50
39315;DHT22;28703;44.412;11.918;2023-06-24T05:05:28;24.70;92.50
39315;DHT22;28703;44.412;11.918;2023-06-24T05:07:54;24.60;92.40
39315;DHT22;28703;44.412;11.918;2023-06-24T05:10:20;24.60;92.50
39315;DHT22;28703;44.412;11.918;2023-06-24T05:12:45;24.70;92.50
39315;DHT22;28703;44.412;11.918;2023-06-24T05:15:12;24.70;92.50
39315;DHT22;28703;44.412;11.918;2023-06-24T05:17:38;24.60;92.60
39315;DHT22;28703;44.412;11.918;2023-06-24T05:20:05;24.70;92.60
39315;DHT22;28703;44.412;11.918;2023-06-24T05:22:31;24.70;92.60
39315;DHT22;28703;44.412;11.918;2023-06-24T05:24:57;24.70;92.70
39315;DHT22;28703;44.412;11.918;2023-06-24T05:27:23;24.70;92.70
39315;DHT22;28703;44.412;11.918;2023-06-24T05:29:49;24.80;92.80
39315;DHT22;28703;44.412;11.918;2023-06-24T05:32:15;24.80;92.90
39315;DHT22;28703;44.412;11.918;2023-06-24T05:34:43;24.80;93.10
39315;DHT22;28703;44.412;11.918;2023-06-24T05:37:09;24.70;93.30
39315;DHT22;28703;44.412;11.918;2023-06-24T05:39:35;24.70;93.40
39315;DHT22;28703;44.412;11.918;2023-06-24T05:42:00;24.70;93.60
39315;DHT22;28703;44.412;11.918;2023-06-24T05:44:26;24.70;93.60
39315;DHT22;28703;44.412;11.918;2023-06-24T05:46:52;24.70;93.70
39315;DHT22;28703;44.412;11.918;2023-06-24T05:49:18;24.60;93.90
39315;DHT22;28703;44.412;11.918;2023-06-24T05:51:44;24.70;94.10
39315;DHT22;28703;44.412;11.918;2023-06-24T05:54:10;24.60;94.10
39315;DHT22;28703;44.412;11.918;2023-06-24T05:56:35;24.70;94.30
39315;DHT22;28703;44.412;11.918;2023-06-24T05:59:02;24.70;94.70
39315;DHT22;28703;44.412;11.918;2023-06-24T06:01:28;24.70;94.80
39315;DHT22;28703;44.412;11.918;2023-06-24T06:03:53;24.70;94.80
39315;DHT22;28703;44.412;11.918;2023-06-24T06:06:19;24.70;94.90
39315;DHT22;28703;44.412;11.918;2023-06-24T06:08:45;24.70;94.80
39315;DHT22;28703;44.412;11.918;2023-06-24T06:11:11;24.70;94.70
39315;DHT22;28703;44.412;11.918;2023-06-24T06:13:37;24.70;94.80
39315;DHT22;28703;44.412;11.918;2023-06-24T06:16:03;24.70;94.80
39315;DHT22;28703;44.412;11.918;2023-06-24T06:18:29;24.70;94.80
39315;DHT22;28703;44.412;11.918;2023-06-24T06:20:55;24.70;95.00
39315;DHT22;28703;44.412;11.918;2023-06-24T06:23:21;24.70;94.90
39315;DHT22;28703;44.412;11.918;2023-06-24T06:25:46;24.70;94.80
39315;DHT22;28703;44.412;11.918;2023-06-24T06:28:12;24.80;94.80
39315;DHT22;28703;44.412;11.918;2023-06-24T06:30:38;24.80;94.90
39315;DHT22;28703;44.412;11.918;2023-06-24T06:33:04;24.80;94.80
39315;DHT22;28703;44.412;11.918;2023-06-24T06:35:30;24.90;94.80
39315;DHT22;28703;44.412;11.918;2023-06-24T06:37:57;24.90;94.90
39315;DHT22;28703;44.412;11.918;2023-06-24T06:40:23;24.90;94.90
39315;DHT22;28703;44.412;11.918;2023-06-24T06:42:50;24.90;95.50
39315;DHT22;28703;44.412;11.918;2023-06-24T06:45:16;24.90;95.50
39315;DHT22;28703;44.412;11.918;2023-06-24T06:47:41;24.90;95.70
39315;DHT22;28703;44.412;11.918;2023-06-24T06:50:07;24.90;95.60
39315;DHT22;28703;44.412;11.918;2023-06-24T06:52:34;24.90;95.70
39315;DHT22;28703;44.412;11.918;2023-06-24T06:54:59;24.90;95.70
39315;DHT22;28703;44.412;11.918;2023-06-24T06:57:25;24.90;95.60
39315;DHT22;28703;44.412;11.918;2023-06-24T06:59:52;24.90;95.60
39315;DHT22;28703;44.412;11.918;2023-06-24T07:02:18;25.00;95.90
39315;DHT22;28703;44.412;11.918;2023-06-24T07:04:44;25.00;95.70
39315;DHT22;28703;44.412;11.918;2023-06-24T07:07:10;25.00;95.70
39315;DHT22;28703;44.412;11.918;2023-06-24T07:09:37;25.10;95.60
39315;DHT22;28703;44.412;11.918;2023-06-24T07:12:03;25.10;95.50
39315;DHT22;28703;44.412;11.918;2023-06-24T07:14:29;25.20;95.80
39315;DHT22;28703;44.412;11.918;2023-06-24T07:16:55;25.20;95.40
39315;DHT22;28703;44.412;11.918;2023-06-24T07:19:21;25.30;95.40
39315;DHT22;28703;44.412;11.918;2023-06-24T07:21:47;25.30;95.50
39315;DHT22;28703;44.412;11.918;2023-06-24T07:24:13;25.40;95.40
39315;DHT22;28703;44.412;11.918;2023-06-24T07:26:39;25.40;95.40
39315;DHT22;28703;44.412;11.918;2023-06-24T07:29:08;25.50;95.50
39315;DHT22;28703;44.412;11.918;2023-06-24T07:31:35;25.60;95.50
39315;DHT22;28703;44.412;11.918;2023-06-24T07:34:01;25.60;95.90
39315;DHT22;28703;44.412;11.918;2023-06-24T07:36:27;25.70;95.50
39315;DHT22;28703;44.412;11.918;2023-06-24T07:38:53;25.80;95.20
39315;DHT22;28703;44.412;11.918;2023-06-24T07:41:18;25.80;95.00
39315;DHT22;28703;44.412;11.918;2023-06-24T07:43:44;25.90;94.60
39315;DHT22;28703;44.412;11.918;2023-06-24T07:46:10;26.00;94.50
39315;DHT22;28703;44.412;11.918;2023-06-24T07:48:36;25.90;93.90
39315;DHT22;28703;44.412;11.918;2023-06-24T07:51:02;25.90;94.20
39315;DHT22;28703;44.412;11.918;2023-06-24T07:53:28;25.90;94.00
39315;DHT22;28703;44.412;11.918;2023-06-24T07:55:54;25.80;94.30
39315;DHT22;28703;44.412;11.918;2023-06-24T07:58:19;25.90;93.30
39315;DHT22;28703;44.412;11.918;2023-06-24T08:00:46;26.00;93.60
39315;DHT22;28703;44.412;11.918;2023-06-24T08:03:13;26.10;93.40
39315;DHT22;28703;44.412;11.918;2023-06-24T08:05:39;26.10;93.40
39315;DHT22;28703;44.412;11.918;2023-06-24T08:08:05;26.20;93.00
39315;DHT22;28703;44.412;11.918;2023-06-24T08:10:32;26.20;92.70
39315;DHT22;28703;44.412;11.918;2023-06-24T08:12:57;26.30;93.20
39315;DHT22;28703;44.412;11.918;2023-06-24T08:15:23;26.30;93.00
39315;DHT22;28703;44.412;11.918;2023-06-24T08:17:53;26.30;92.90
39315;DHT22;28703;44.412;11.918;2023-06-24T08:20:23;26.30;92.60
39315;DHT22;28703;44.412;11.918;2023-06-24T08:22:49;26.40;92.90
39315;DHT22;28703;44.412;11.918;2023-06-24T08:25:15;26.40;92.40
39315;DHT22;28703;44.412;11.918;2023-06-24T08:27:41;26.40;92.30
39315;DHT22;28703;44.412;11.918;2023-06-24T08:30:09;26.40;91.20
39315;DHT22;28703;44.412;11.918;2023-06-24T08:32:35;26.40;90.70
39315;DHT22;28703;44.412;11.918;2023-06-24T08:35:01;26.40;90.80
39315;DHT22;28703;44.412;11.918;2023-06-24T08:37:26;26.40;91.00
39315;DHT22;28703;44.412;11.918;2023-06-24T08:39:53;26.50;90.60
39315;DHT22;28703;44.412;11.918;2023-06-24T08:42:19;26.60;90.50
39315;DHT22;28703;44.412;11.918;2023-06-24T08:44:45;26.60;90.40
39315;DHT22;28703;44.412;11.918;2023-06-24T08:47:11;26.80;90.40
39315;DHT22;28703;44.412;11.918;2023-06-24T08:49:48;26.80;90.50
39315;DHT22;28703;44.412;11.918;2023-06-24T08:52:20;26.90;90.50
39315;DHT22;28703;44.412;11.918;2023-06-24T08:54:50;26.90;90.60
39315;DHT22;28703;44.412;11.918;2023-06-24T08:57:16;27.00;90.50
39315;DHT22;28703;44.412;11.918;2023-06-24T08:59:44;27.10;90.30
39315;DHT22;28703;44.412;11.918;2023-06-24T09:02:10;27.10;89.90
39315;DHT22;28703;44.412;11.918;2023-06-24T09:04:36;27.20;89.40
39315;DHT22;28703;44.412;11.918;2023-06-24T09:07:02;27.20;88.40
39315;DHT22;28703;44.412;11.918;2023-06-24T09:09:29;27.30;88.10
39315;DHT22;28703;44.412;11.918;2023-06-24T09:11:59;27.40;87.70
39315;DHT22;28703;44.412;11.918;2023-06-24T09:14:26;27.40;87.00
39315;DHT22;28703;44.412;11.918;2023-06-24T09:16:59;27.50;86.10
39315;DHT22;28703;44.412;11.918;2023-06-24T09:19:29;27.50;84.70
39315;DHT22;28703;44.412;11.918;2023-06-24T09:22:08;27.60;84.70
39315;DHT22;28703;44.412;11.918;2023-06-24T09:24:37;27.60;84.60
39315;DHT22;28703;44.412;11.918;2023-06-24T09:27:03;27.60;85.10
39315;DHT22;28703;44.412;11.918;2023-06-24T09:29:32;27.70;84.80
39315;DHT22;28703;44.412;11.918;2023-06-24T09:31:59;27.70;85.10
39315;DHT22;28703;44.412;11.918;2023-06-24T09:34:27;27.70;84.90
39315;DHT22;28703;44.412;11.918;2023-06-24T09:36:55;27.80;84.20
39315;DHT22;28703;44.412;11.918;2023-06-24T09:39:21;27.80;84.70
39315;DHT22;28703;44.412;11.918;2023-06-24T09:41:54;27.90;85.10
39315;DHT22;28703;44.412;11.918;2023-06-24T09:44:20;28.00;85.00
39315;DHT22;28703;44.412;11.918;2023-06-24T09:46:46;28.00;83.90
39315;DHT22;28703;44.412;11.918;2023-06-24T09:49:12;28.10;84.30
39315;DHT22;28703;44.412;11.918;2023-06-24T09:51:39;28.10;84.40
39315;DHT22;28703;44.412;11.918;2023-06-24T09:54:10;28.10;84.60
39315;DHT22;28703;44.412;11.918;2023-06-24T09:56:36;28.20;84.70
39315;DHT22;28703;44.412;11.918;2023-06-24T09:59:06;28.10;83.90
39315;DHT22;28703;44.412;11.918;2023-06-24T10:01:36;28.20;84.00
39315;DHT22;28703;44.412;11.918;2023-06-24T10:04:03;28.20;82.90
39315;DHT22;28703;44.412;11.918;2023-06-24T10:06:30;28.30;82.60
39315;DHT22;28703;44.412;11.918;2023-06-24T10:08:56;28.30;81.70
39315;DHT22;28703;44.412;11.918;2023-06-24T10:11:23;28.30;81.60
39315;DHT22;28703;44.412;11.918;2023-06-24T10:13:49;28.40;81.80
39315;DHT22;28703;44.412;11.918;2023-06-24T10:16:15;28.40;81.90
39315;DHT22;28703;44.412;11.918;2023-06-24T10:18:41;28.50;80.40
39315;DHT22;28703;44.412;11.918;2023-06-24T10:21:09;28.40;80.20
39315;DHT22;28703;44.412;11.918;2023-06-24T10:23:41;28.50;79.80
39315;DHT22;28703;44.412;11.918;2023-06-24T10:26:21;28.50;80.10
39315;DHT22;28703;44.412;11.918;2023-06-24T10:31:55;28.60;79.90
39315;DHT22;28703;44.412;11.918;2023-06-24T10:34:57;28.60;78.80
39315;DHT22;28703;44.412;11.918;2023-06-24T10:37:21;28.60;79.40
39315;DHT22;28703;44.412;11.918;2023-06-24T10:39:48;28.70;80.10
39315;DHT22;28703;44.412;11.918;2023-06-24T10:42:40;28.70;78.60
39315;DHT22;28703;44.412;11.918;2023-06-24T10:47:41;28.70;80.00
39315;DHT22;28703;44.412;11.918;2023-06-24T10:50:09;28.80;80.40
39315;DHT22;28703;44.412;11.918;2023-06-24T10:52:44;28.90;80.80
39315;DHT22;28703;44.412;11.918;2023-06-24T10:55:17;28.90;80.70
39315;DHT22;28703;44.412;11.918;2023-06-24T10:57:43;28.90;79.00
39315;DHT22;28703;44.412;11.918;2023-06-24T11:00:11;29.00;79.00
39315;DHT22;28703;44.412;11.918;2023-06-24T11:02:37;28.90;78.50
39315;DHT22;28703;44.412;11.918;2023-06-24T11:05:04;29.00;79.30
39315;DHT22;28703;44.412;11.918;2023-06-24T11:07:38;29.00;79.10
39315;DHT22;28703;44.412;11.918;2023-06-24T11:10:06;29.10;79.50
39315;DHT22;28703;44.412;11.918;2023-06-24T11:12:36;29.10;80.50
39315;DHT22;28703;44.412;11.918;2023-06-24T11:15:07;29.20;80.90
39315;DHT22;28703;44.412;11.918;2023-06-24T11:17:34;29.20;80.00
39315;DHT22;28703;44.412;11.918;2023-06-24T11:20:01;29.30;79.70
39315;DHT22;28703;44.412;11.918;2023-06-24T11:22:27;29.30;79.80
39315;DHT22;28703;44.412;11.918;2023-06-24T11:24:54;29.40;79.20
39315;DHT22;28703;44.412;11.918;2023-06-24T11:27:30;29.40;79.50
39315;DHT22;28703;44.412;11.918;2023-06-24T11:30:00;29.40;78.00
39315;DHT22;28703;44.412;11.918;2023-06-24T11:32:38;29.40;76.40
39315;DHT22;28703;44.412;11.918;2023-06-24T11:35:14;29.50;76.10
39315;DHT22;28703;44.412;11.918;2023-06-24T11:37:45;29.50;76.00
39315;DHT22;28703;44.412;11.918;2023-06-24T11:40:13;29.40;75.70
39315;DHT22;28703;44.412;11.918;2023-06-24T11:58:00;29.60;75.10
39315;DHT22;28703;44.412;11.918;2023-06-24T12:05:10;29.90;75.60
39315;DHT22;28703;44.412;11.918;2023-06-24T12:08:14;30.00;73.20
39315;DHT22;28703;44.412;11.918;2023-06-24T12:10:49;30.10;73.00
39315;DHT22;28703;44.412;11.918;2023-06-24T12:13:15;30.10;73.00
39315;DHT22;28703;44.412;11.918;2023-06-24T12:15:41;30.30;72.90
39315;DHT22;28703;44.412;11.918;2023-06-24T12:18:07;30.30;72.90
39315;DHT22;28703;44.412;11.918;2023-06-24T12:20:33;30.40;72.50
39315;DHT22;28703;44.412;11.918;2023-06-24T12:23:00;30.50;72.00
39315;DHT22;28703;44.412;11.918;2023-06-24T12:25:26;30.50;71.80
39315;DHT22;28703;44.412;11.918;2023-06-24T12:27:51;30.60;72.40
39315;DHT22;28703;44.412;11.918;2023-06-24T12:30:17;30.70;72.10
39315;DHT22;28703;44.412;11.918;2023-06-24T12:32:44;30.80;72.30
39315;DHT22;28703;44.412;11.918;2023-06-24T12:35:10;30.80;71.50
39315;DHT22;28703;44.412;11.918;2023-06-24T12:37:36;30.90;71.50
39315;DHT22;28703;44.412;11.918;2023-06-24T12:40:03;31.00;72.10
39315;DHT22;28703;44.412;11.918;2023-06-24T12:42:29;31.10;71.70
39315;DHT22;28703;44.412;11.918;2023-06-24T12:44:56;31.20;70.70
39315;DHT22;28703;44.412;11.918;2023-06-24T12:47:22;31.20;70.40
39315;DHT22;28703;44.412;11.918;2023-06-24T12:49:49;31.30;70.60
39315;DHT22;28703;44.412;11.918;2023-06-24T12:52:15;31.40;70.90
39315;DHT22;28703;44.412;11.918;2023-06-24T12:54:41;31.50;70.90
39315;DHT22;28703;44.412;11.918;2023-06-24T12:57:07;31.60;70.20
39315;DHT22;28703;44.412;11.918;2023-06-24T12:59:33;31.70;69.50
39315;DHT22;28703;44.412;11.918;2023-06-24T13:01:59;31.80;70.60
39315;DHT22;28703;44.412;11.918;2023-06-24T13:04:26;31.80;70.80
39315;DHT22;28703;44.412;11.918;2023-06-24T13:06:53;31.90;71.50
39315;DHT22;28703;44.412;11.918;2023-06-24T13:09:19;32.00;71.90
39315;DHT22;28703;44.412;11.918;2023-06-24T13:11:45;32.00;72.50
39315;DHT22;28703;44.412;11.918;2023-06-24T13:14:12;32.20;72.40
39315;DHT22;28703;44.412;11.918;2023-06-24T13:16:38;32.30;72.20
39315;DHT22;28703;44.412;11.918;2023-06-24T13:19:04;32.30;71.20
39315;DHT22;28703;44.412;11.918;2023-06-24T13:21:31;32.40;71.30
39315;DHT22;28703;44.412;11.918;2023-06-24T13:23:57;32.40;71.10
39315;DHT22;28703;44.412;11.918;2023-06-24T13:26:22;32.50;71.30
39315;DHT22;28703;44.412;11.918;2023-06-24T13:28:50;32.60;71.50
39315;DHT22;28703;44.412;11.918;2023-06-24T13:31:16;32.60;71.60
39315;DHT22;28703;44.412;11.918;2023-06-24T13:33:42;32.70;71.50
39315;DHT22;28703;44.412;11.918;2023-06-24T13:36:26;32.70;72.20
39315;DHT22;28703;44.412;11.918;2023-06-24T13:38:53;32.80;71.30
39315;DHT22;28703;44.412;11.918;2023-06-24T13:41:19;32.90;71.50
39315;DHT22;28703;44.412;11.918;2023-06-24T13:43:45;32.90;71.90
39315;DHT22;28703;44.412;11.918;2023-06-24T13:46:11;33.00;71.80
39315;DHT22;28703;44.412;11.918;2023-06-24T13:48:37;33.10;71.60
39315;DHT22;28703;44.412;11.918;2023-06-24T13:51:03;33.10;71.30
39315;DHT22;28703;44.412;11.918;2023-06-24T13:53:29;33.20;71.40
39315;DHT22;28703;44.412;11.918;2023-06-24T13:55:55;33.20;71.00
39315;DHT22;28703;44.412;11.918;2023-06-24T13:58:20;33.30;70.30
39315;DHT22;28703;44.412;11.918;2023-06-24T14:00:46;33.30;70.20
39315;DHT22;28703;44.412;11.918;2023-06-24T14:03:12;33.40;70.20
39315;DHT22;28703;44.412;11.918;2023-06-24T14:05:38;33.40;70.00
39315;DHT22;28703;44.412;11.918;2023-06-24T14:08:04;33.40;69.90
39315;DHT22;28703;44.412;11.918;2023-06-24T14:10:29;33.50;69.50
39315;DHT22;28703;44.412;11.918;2023-06-24T14:12:55;33.60;69.60
39315;DHT22;28703;44.412;11.918;2023-06-24T14:15:21;33.70;69.70
39315;DHT22;28703;44.412;11.918;2023-06-24T14:17:48;33.70;69.20
39315;DHT22;28703;44.412;11.918;2023-06-24T14:20:14;33.70;69.10
39315;DHT22;28703;44.412;11.918;2023-06-24T14:22:40;33.80;69.00
39315;DHT22;28703;44.412;11.918;2023-06-24T14:25:06;33.80;68.80
39315;DHT22;28703;44.412;11.918;2023-06-24T14:27:32;33.90;69.10
39315;DHT22;28703;44.412;11.918;2023-06-24T14:29:57;33.90;69.00
39315;DHT22;28703;44.412;11.918;2023-06-24T14:32:23;34.00;68.80
39315;DHT22;28703;44.412;11.918;2023-06-24T14:34:49;34.10;68.80
39315;DHT22;28703;44.412;11.918;2023-06-24T14:37:15;34.00;69.10
39315;DHT22;28703;44.412;11.918;2023-06-24T14:39:41;34.10;69.30
39315;DHT22;28703;44.412;11.918;2023-06-24T14:42:07;34.20;69.50
39315;DHT22;28703;44.412;11.918;2023-06-24T14:44:33;34.30;69.60
39315;DHT22;28703;44.412;11.918;2023-06-24T14:46:58;34.30;69.60
39315;DHT22;28703;44.412;11.918;2023-06-24T14:49:24;34.50;69.80
39315;DHT22;28703;44.412;11.918;2023-06-24T14:51:52;34.50;69.50
39315;DHT22;28703;44.412;11.918;2023-06-24T14:54:18;34.60;69.70
39315;DHT22;28703;44.412;11.918;2023-06-24T14:56:44;34.70;69.50
39315;DHT22;28703;44.412;11.918;2023-06-24T14:59:11;34.80;69.30
39315;DHT22;28703;44.412;11.918;2023-06-24T15:01:37;34.90;69.50
39315;DHT22;28703;44.412;11.918;2023-06-24T15:04:03;35.00;69.50
39315;DHT22;28703;44.412;11.918;2023-06-24T15:06:29;35.10;69.30
39315;DHT22;28703;44.412;11.918;2023-06-24T15:08:55;35.10;68.80
39315;DHT22;28703;44.412;11.918;2023-06-24T15:11:21;35.20;68.60
39315;DHT22;28703;44.412;11.918;2023-06-24T15:13:47;35.30;68.80
39315;DHT22;28703;44.412;11.918;2023-06-24T15:16:12;35.30;68.70
39315;DHT22;28703;44.412;11.918;2023-06-24T15:18:45;35.40;68.90
39315;DHT22;28703;44.412;11.918;2023-06-24T15:21:11;35.40;68.70
39315;DHT22;28703;44.412;11.918;2023-06-24T15:23:37;35.50;68.50
39315;DHT22;28703;44.412;11.918;2023-06-24T15:26:03;35.60;68.60
39315;DHT22;28703;44.412;11.918;2023-06-24T15:28:29;35.70;68.60
39315;DHT22;28703;44.412;11.918;2023-06-24T15:30:55;35.80;68.40
39315;DHT22;28703;44.412;11.918;2023-06-24T15:33:21;35.80;68.10
39315;DHT22;28703;44.412;11.918;2023-06-24T15:35:47;36.00;68.10
39315;DHT22;28703;44.412;11.918;2023-06-24T15:38:13;36.10;68.00
39315;DHT22;28703;44.412;11.918;2023-06-24T15:40:42;36.20;68.00
39315;DHT22;28703;44.412;11.918;2023-06-24T15:43:09;36.40;68.00
39315;DHT22;28703;44.412;11.918;2023-06-24T15:45:35;36.50;68.20
39315;DHT22;28703;44.412;11.918;2023-06-24T15:48:03;36.60;68.20
39315;DHT22;28703;44.412;11.918;2023-06-24T15:50:29;36.70;68.30